createdAt,value
2019-01-29T00:00:01.139Z,965.58
2019-01-29T00:01:01.137Z,965.56
2019-01-29T00:02:01.130Z,965.60
2019-01-29T00:03:01.119Z,965.69
2019-01-29T00:04:01.091Z,965.62
2019-01-29T00:05:01.150Z,965.67
2019-01-29T00:06:01.071Z,965.71
2019-01-29T00:07:01.072Z,965.71
2019-01-29T00:08:01.151Z,965.76
2019-01-29T00:09:01.032Z,965.81
2019-01-29T00:10:01.104Z,965.81
2019-01-29T00:11:01.027Z,965.85
2019-01-29T00:12:01.014Z,965.84
2019-01-29T00:13:02.025Z,965.94
2019-01-29T00:14:00.985Z,965.96
2019-01-29T00:15:01.029Z,965.91
2019-01-29T00:16:00.957Z,965.92
2019-01-29T00:17:00.967Z,966.05
2019-01-29T00:18:00.937Z,966.03
2019-01-29T00:19:01.006Z,965.99
2019-01-29T00:20:00.917Z,965.91
2019-01-29T00:21:00.948Z,966.00
2019-01-29T00:22:00.910Z,965.94
2019-01-29T00:23:00.979Z,965.98
2019-01-29T00:24:00.869Z,966.01
2019-01-29T00:25:00.919Z,966.07
2019-01-29T00:26:00.850Z,966.03
2019-01-29T00:27:00.900Z,966.09
2019-01-29T00:28:00.830Z,966.10
2019-01-29T00:29:00.894Z,966.08
2019-01-29T00:30:00.802Z,966.14
2019-01-29T00:31:00.821Z,966.14
2019-01-29T00:32:00.797Z,966.17
2019-01-29T00:33:00.773Z,966.16
2019-01-29T00:34:00.823Z,966.12
2019-01-29T00:35:00.742Z,966.15
2019-01-29T00:36:00.764Z,966.17
2019-01-29T00:37:00.734Z,966.18
2019-01-29T00:38:00.700Z,966.16
2019-01-29T00:39:00.695Z,966.18
2019-01-29T00:40:00.734Z,966.24
2019-01-29T00:41:00.663Z,966.24
2019-01-29T00:42:00.707Z,966.28
2019-01-29T00:43:00.656Z,966.33
2019-01-29T00:44:00.645Z,966.33
2019-01-29T00:45:01.708Z,966.31
2019-01-29T00:46:00.627Z,966.39
2019-01-29T00:47:01.678Z,966.33
2019-01-29T00:48:00.588Z,966.43
2019-01-29T00:49:00.578Z,966.42
2019-01-29T00:50:00.608Z,966.44
2019-01-29T00:51:00.558Z,966.45
2019-01-29T00:52:00.593Z,966.48
2019-01-29T00:53:00.539Z,966.51
2019-01-29T00:54:00.530Z,966.53
2019-01-29T00:55:00.520Z,966.58
2019-01-29T00:56:00.511Z,966.58
2019-01-29T00:57:00.533Z,966.57
2019-01-29T00:58:00.565Z,966.60
2019-01-29T00:59:00.472Z,966.60
2019-01-29T01:00:00.484Z,966.63
2019-01-29T01:01:00.453Z,966.61
2019-01-29T01:02:01.554Z,966.67
2019-01-29T01:03:00.442Z,966.70
2019-01-29T01:04:01.493Z,966.76
2019-01-29T01:05:00.405Z,966.77
2019-01-29T01:06:00.508Z,966.80
2019-01-29T01:07:00.386Z,966.81
2019-01-29T01:08:06.794Z,966.80
2019-01-29T01:09:00.367Z,966.79
2019-01-29T01:10:00.357Z,966.86
2019-01-29T01:11:00.437Z,966.89
2019-01-29T01:12:00.329Z,966.87
2019-01-29T01:13:00.441Z,966.89
2019-01-29T01:14:00.309Z,966.93
2019-01-29T01:15:00.299Z,966.99
2019-01-29T01:16:00.289Z,967.01
2019-01-29T01:17:01.369Z,966.93
2019-01-29T01:18:00.282Z,967.02
2019-01-29T01:19:01.300Z,967.01
2019-01-29T01:20:00.269Z,967.01
2019-01-29T01:21:01.241Z,967.04
2019-01-29T01:22:00.221Z,967.05
2019-01-29T01:23:00.304Z,967.09
2019-01-29T01:24:00.188Z,967.05
2019-01-29T01:25:00.292Z,967.10
2019-01-29T01:26:00.163Z,967.14
2019-01-29T01:27:01.246Z,967.11
2019-01-29T01:28:00.165Z,967.10
2019-01-29T01:29:00.154Z,967.11
2019-01-29T01:30:00.209Z,967.13
2019-01-29T01:31:00.103Z,967.21
2019-01-29T01:32:00.093Z,967.25
2019-01-29T01:33:00.175Z,967.23
2019-01-29T01:34:00.076Z,967.24
2019-01-29T01:35:01.096Z,967.23
2019-01-29T01:36:00.135Z,967.32
2019-01-29T01:37:00.035Z,967.30
2019-01-29T01:38:00.117Z,967.34
2019-01-29T01:39:00.027Z,967.33
2019-01-29T01:40:00.277Z,967.35
2019-01-29T01:40:59.998Z,967.33
2019-01-29T01:42:00.039Z,967.41
2019-01-29T01:42:59.998Z,967.39
2019-01-29T01:43:59.979Z,967.41
2019-01-29T01:44:59.959Z,967.40
2019-01-29T01:46:00.011Z,967.42
2019-01-29T01:46:59.930Z,967.36
2019-01-29T01:48:00.000Z,967.43
2019-01-29T01:48:59.903Z,967.43
2019-01-29T01:49:59.992Z,967.40
2019-01-29T01:50:59.892Z,967.43
2019-01-29T01:51:59.882Z,967.41
2019-01-29T01:52:59.884Z,967.45
2019-01-29T01:54:00.883Z,967.46
2019-01-29T01:54:59.846Z,967.46
2019-01-29T01:55:59.896Z,967.44
2019-01-29T01:56:59.826Z,967.50
2019-01-29T01:57:59.887Z,967.49
2019-01-29T01:58:59.805Z,967.49
2019-01-29T02:00:00.900Z,967.47
2019-01-29T02:00:59.759Z,967.51
2019-01-29T02:01:59.801Z,967.51
2019-01-29T02:02:59.751Z,967.51
2019-01-29T02:03:59.832Z,967.47
2019-01-29T02:04:59.726Z,967.51
2019-01-29T02:05:59.773Z,967.55
2019-01-29T02:06:59.696Z,967.55
2019-01-29T02:07:59.698Z,967.58
2019-01-29T02:09:00.695Z,967.55
2019-01-29T02:09:59.665Z,967.58
2019-01-29T02:10:59.709Z,967.55
2019-01-29T02:11:59.640Z,967.58
2019-01-29T02:12:59.652Z,967.65
2019-01-29T02:13:59.624Z,967.58
2019-01-29T02:15:00.699Z,967.63
2019-01-29T02:15:59.616Z,967.60
2019-01-29T02:16:59.611Z,967.68
2019-01-29T02:17:59.593Z,967.69
2019-01-29T02:18:59.653Z,967.69
2019-01-29T02:19:59.552Z,967.74
2019-01-29T02:20:59.583Z,967.77
2019-01-29T02:21:59.543Z,967.73
2019-01-29T02:23:07.572Z,967.73
2019-01-29T02:24:00.523Z,967.81
2019-01-29T02:25:00.594Z,967.86
2019-01-29T02:25:59.495Z,967.81
2019-01-29T02:26:59.505Z,967.77
2019-01-29T02:27:59.476Z,967.83
2019-01-29T02:28:59.458Z,967.88
2019-01-29T02:29:59.507Z,967.84
2019-01-29T02:30:59.429Z,967.85
2019-01-29T02:31:59.429Z,967.86
2019-01-29T02:32:59.418Z,967.85
2019-01-29T02:33:59.407Z,967.86
2019-01-29T02:34:59.400Z,967.83
2019-01-29T02:35:59.415Z,967.81
2019-01-29T02:36:59.369Z,967.85
2019-01-29T02:37:59.399Z,967.88
2019-01-29T02:38:59.377Z,967.86
2019-01-29T02:39:59.329Z,967.91
2019-01-29T02:40:59.345Z,967.91
2019-01-29T02:41:59.298Z,967.98
2019-01-29T02:42:59.330Z,967.98
2019-01-29T02:43:59.281Z,968.05
2019-01-29T02:44:59.273Z,967.95
2019-01-29T02:45:59.284Z,967.98
2019-01-29T02:47:01.303Z,967.98
2019-01-29T02:47:59.253Z,967.96
2019-01-29T02:49:00.323Z,968.00
2019-01-29T02:49:59.261Z,967.97
2019-01-29T02:50:59.204Z,968.04
2019-01-29T02:51:59.295Z,968.02
2019-01-29T02:52:59.205Z,968.05
2019-01-29T02:53:59.233Z,968.06
2019-01-29T02:54:59.185Z,968.02
2019-01-29T02:55:59.266Z,968.05
2019-01-29T02:56:59.136Z,968.04
2019-01-29T02:57:59.246Z,968.05
2019-01-29T02:58:59.116Z,968.06
2019-01-29T03:00:01.188Z,968.09
2019-01-29T03:00:59.098Z,968.09
2019-01-29T03:01:59.169Z,968.11
2019-01-29T03:02:59.101Z,968.11
2019-01-29T03:03:59.169Z,968.10
2019-01-29T03:04:59.061Z,968.13
2019-01-29T03:05:59.041Z,968.10
2019-01-29T03:06:59.031Z,968.16
2019-01-29T03:07:59.081Z,968.20
2019-01-29T03:08:59.025Z,968.21
2019-01-29T03:10:00.052Z,968.23
2019-01-29T03:11:00.013Z,968.23
2019-01-29T03:11:58.978Z,968.27
2019-01-29T03:12:59.025Z,968.31
2019-01-29T03:13:58.972Z,968.31
2019-01-29T03:14:59.056Z,968.32
2019-01-29T03:15:58.944Z,968.37
2019-01-29T03:16:58.987Z,968.37
2019-01-29T03:17:58.915Z,968.34
2019-01-29T03:18:58.985Z,968.38
2019-01-29T03:19:58.896Z,968.34
2019-01-29T03:20:58.965Z,968.37
2019-01-29T03:21:58.876Z,968.38
2019-01-29T03:22:58.902Z,968.40
2019-01-29T03:23:58.856Z,968.40
2019-01-29T03:25:05.797Z,968.39
2019-01-29T03:25:58.827Z,968.36
2019-01-29T03:26:58.807Z,968.45
2019-01-29T03:27:58.834Z,968.50
2019-01-29T03:28:58.794Z,968.42
2019-01-29T03:30:15.994Z,968.51
2019-01-29T03:30:58.761Z,968.52
2019-01-29T03:31:58.751Z,968.51
2019-01-29T03:32:58.749Z,968.50
2019-01-29T03:33:58.790Z,968.49
2019-01-29T03:34:58.720Z,968.57
2019-01-29T03:35:58.782Z,968.52
2019-01-29T03:36:58.697Z,968.52
2019-01-29T03:37:58.722Z,968.56
2019-01-29T03:38:58.681Z,968.55
2019-01-29T03:39:58.753Z,968.51
2019-01-29T03:40:58.652Z,968.55
2019-01-29T03:41:58.694Z,968.55
2019-01-29T03:42:58.663Z,968.55
2019-01-29T03:43:58.645Z,968.53
2019-01-29T03:44:58.705Z,968.61
2019-01-29T03:45:58.605Z,968.57
2019-01-29T03:46:58.636Z,968.58
2019-01-29T03:47:58.605Z,968.62
2019-01-29T03:48:58.576Z,968.60
2019-01-29T03:49:58.652Z,968.57
2019-01-29T03:50:58.548Z,968.61
2019-01-29T03:51:58.589Z,968.68
2019-01-29T03:52:58.528Z,968.64
2019-01-29T03:53:58.559Z,968.70
2019-01-29T03:54:58.509Z,968.68
2019-01-29T03:55:58.550Z,968.70
2019-01-29T03:56:58.479Z,968.69
2019-01-29T03:57:58.479Z,968.73
2019-01-29T03:58:58.470Z,968.75
2019-01-29T03:59:58.520Z,968.76
2019-01-29T04:00:58.441Z,968.72
2019-01-29T04:01:58.452Z,968.79
2019-01-29T04:02:58.405Z,968.72
2019-01-29T04:03:58.421Z,968.75
2019-01-29T04:04:58.391Z,968.76
2019-01-29T04:05:58.422Z,968.82
2019-01-29T04:06:58.373Z,968.81
2019-01-29T04:07:58.462Z,968.78
2019-01-29T04:08:58.359Z,968.83
2019-01-29T04:09:58.318Z,968.85
2019-01-29T04:10:59.383Z,968.80
2019-01-29T04:11:58.318Z,968.82
2019-01-29T04:13:06.278Z,968.81
2019-01-29T04:13:58.296Z,968.83
2019-01-29T04:14:59.365Z,968.84
2019-01-29T04:15:58.256Z,968.86
2019-01-29T04:16:58.276Z,968.89
2019-01-29T04:17:58.241Z,968.89
2019-01-29T04:18:58.351Z,968.86
2019-01-29T04:19:58.217Z,968.89
2019-01-29T04:20:58.238Z,968.90
2019-01-29T04:21:58.219Z,968.89
2019-01-29T04:22:58.279Z,968.91
2019-01-29T04:23:58.189Z,968.87
2019-01-29T04:24:58.169Z,968.91
2019-01-29T04:25:58.189Z,968.90
2019-01-29T04:26:58.154Z,968.90
2019-01-29T04:27:59.254Z,968.94
2019-01-29T04:28:58.140Z,968.97
2019-01-29T04:29:58.112Z,968.96
2019-01-29T04:30:58.101Z,968.96
2019-01-29T04:31:58.191Z,968.95
2019-01-29T04:32:58.082Z,969.01
2019-01-29T04:33:59.103Z,968.99
2019-01-29T04:34:58.062Z,969.00
2019-01-29T04:35:59.082Z,968.99
2019-01-29T04:36:58.027Z,969.06
2019-01-29T04:37:58.097Z,969.02
2019-01-29T04:38:58.034Z,969.04
2019-01-29T04:39:59.056Z,969.10
2019-01-29T04:40:57.995Z,969.05
2019-01-29T04:41:58.075Z,969.10
2019-01-29T04:42:57.966Z,969.08
2019-01-29T04:43:58.050Z,969.04
2019-01-29T04:44:57.936Z,969.07
2019-01-29T04:45:57.941Z,969.08
2019-01-29T04:46:57.923Z,969.02
2019-01-29T04:47:57.978Z,969.13
2019-01-29T04:48:57.908Z,969.08
2019-01-29T04:49:57.908Z,969.09
2019-01-29T04:50:57.873Z,969.10
2019-01-29T04:51:59.909Z,969.14
2019-01-29T04:52:57.851Z,969.13
2019-01-29T04:53:57.930Z,969.15
2019-01-29T04:54:57.840Z,969.14
2019-01-29T04:55:57.944Z,969.17
2019-01-29T04:56:57.800Z,969.14
2019-01-29T04:58:05.831Z,969.16
2019-01-29T04:58:57.811Z,969.20
2019-01-29T04:59:57.787Z,969.18
2019-01-29T05:00:57.763Z,969.21
2019-01-29T05:01:57.752Z,969.19
2019-01-29T05:02:58.823Z,969.16
2019-01-29T05:03:57.764Z,969.14
2019-01-29T05:04:57.824Z,969.15
2019-01-29T05:05:57.715Z,969.17
2019-01-29T05:06:57.704Z,969.17
2019-01-29T05:07:57.696Z,969.15
2019-01-29T05:08:57.705Z,969.13
2019-01-29T05:09:57.676Z,969.13
2019-01-29T05:10:57.740Z,969.13
2019-01-29T05:11:57.637Z,969.20
2019-01-29T05:12:57.669Z,969.18
2019-01-29T05:13:57.619Z,969.20
2019-01-29T05:14:57.658Z,969.21
2019-01-29T05:15:57.592Z,969.16
2019-01-29T05:16:57.647Z,969.21
2019-01-29T05:17:57.571Z,969.22
2019-01-29T05:18:57.579Z,969.21
2019-01-29T05:19:57.565Z,969.25
2019-01-29T05:20:57.615Z,969.24
2019-01-29T05:21:57.535Z,969.19
2019-01-29T05:22:57.515Z,969.19
2019-01-29T05:24:06.474Z,969.28
2019-01-29T05:24:58.501Z,969.25
2019-01-29T05:25:57.556Z,969.26
2019-01-29T05:26:57.467Z,969.32
2019-01-29T05:27:57.463Z,969.33
2019-01-29T05:28:57.462Z,969.34
2019-01-29T05:29:58.519Z,969.37
2019-01-29T05:30:57.425Z,969.40
2019-01-29T05:31:58.479Z,969.42
2019-01-29T05:32:57.416Z,969.42
2019-01-29T05:33:57.391Z,969.42
2019-01-29T05:34:57.405Z,969.44
2019-01-29T05:35:57.363Z,969.49
2019-01-29T05:36:57.404Z,969.48
2019-01-29T05:37:57.398Z,969.48
2019-01-29T05:38:57.335Z,969.47
2019-01-29T05:39:57.448Z,969.48
2019-01-29T05:40:57.317Z,969.45
2019-01-29T05:41:59.388Z,969.49
2019-01-29T05:42:57.286Z,969.50
2019-01-29T05:43:57.278Z,969.48
2019-01-29T05:44:57.288Z,969.51
2019-01-29T05:46:05.809Z,969.56
2019-01-29T05:46:57.260Z,969.55
2019-01-29T05:47:57.360Z,969.57
2019-01-29T05:48:57.240Z,969.59
2019-01-29T05:49:57.240Z,969.56
2019-01-29T05:50:57.262Z,969.58
2019-01-29T05:51:57.202Z,969.58
2019-01-29T05:52:57.303Z,969.59
2019-01-29T05:53:57.186Z,969.60
2019-01-29T05:54:57.184Z,969.63
2019-01-29T05:55:57.194Z,969.57
2019-01-29T05:56:57.143Z,969.63
2019-01-29T05:57:58.146Z,969.63
2019-01-29T05:58:57.124Z,969.62
2019-01-29T05:59:57.123Z,969.63
2019-01-29T06:00:57.104Z,969.59
2019-01-29T06:01:57.204Z,969.61
2019-01-29T06:02:57.074Z,969.65
2019-01-29T06:03:58.169Z,969.63
2019-01-29T06:04:57.066Z,969.70
2019-01-29T06:05:57.076Z,969.70
2019-01-29T06:06:57.032Z,969.73
2019-01-29T06:07:57.104Z,969.72
2019-01-29T06:08:57.003Z,969.73
2019-01-29T06:09:58.103Z,969.70
2019-01-29T06:10:56.968Z,969.72
2019-01-29T06:11:57.998Z,969.70
2019-01-29T06:12:56.959Z,969.75
2019-01-29T06:13:57.015Z,969.77
2019-01-29T06:14:56.947Z,969.76
2019-01-29T06:15:56.921Z,969.82
2019-01-29T06:16:56.911Z,969.80
2019-01-29T06:17:56.981Z,969.79
2019-01-29T06:18:56.893Z,969.88
2019-01-29T06:19:57.995Z,969.82
2019-01-29T06:20:56.870Z,969.93
2019-01-29T06:21:56.950Z,969.94
2019-01-29T06:22:56.849Z,969.86
2019-01-29T06:23:56.903Z,969.85
2019-01-29T06:24:56.832Z,969.85
2019-01-29T06:25:56.934Z,969.90
2019-01-29T06:26:56.817Z,969.90
2019-01-29T06:27:57.886Z,969.95
2019-01-29T06:28:56.774Z,969.96
2019-01-29T06:29:57.865Z,969.96
2019-01-29T06:30:56.765Z,969.98
2019-01-29T06:31:56.746Z,970.02
2019-01-29T06:32:56.738Z,970.00
2019-01-29T06:33:56.768Z,969.99
2019-01-29T06:34:56.737Z,970.02
2019-01-29T06:35:56.818Z,970.03
2019-01-29T06:36:56.781Z,970.03
2019-01-29T06:37:56.690Z,970.08
2019-01-29T06:38:56.718Z,970.07
2019-01-29T06:39:56.679Z,970.04
2019-01-29T06:40:57.669Z,970.12
2019-01-29T06:41:56.649Z,970.11
2019-01-29T06:42:56.690Z,970.16
2019-01-29T06:43:56.619Z,970.16
2019-01-29T06:44:56.681Z,970.12
2019-01-29T06:45:56.624Z,970.13
2019-01-29T06:46:56.661Z,970.14
2019-01-29T06:47:56.634Z,970.17
2019-01-29T06:48:57.612Z,970.17
2019-01-29T06:49:56.562Z,970.16
2019-01-29T06:50:56.632Z,970.17
2019-01-29T06:51:56.554Z,970.13
2019-01-29T06:52:56.561Z,970.18
2019-01-29T06:53:57.000Z,970.21
2019-01-29T06:54:56.504Z,970.17
2019-01-29T06:55:56.564Z,970.21
2019-01-29T06:56:56.465Z,970.19
2019-01-29T06:57:56.466Z,970.22
2019-01-29T06:58:56.446Z,970.22
2019-01-29T06:59:57.516Z,970.22
2019-01-29T07:00:56.426Z,970.23
2019-01-29T07:01:56.478Z,970.24
2019-01-29T07:02:57.468Z,970.22
2019-01-29T07:03:56.398Z,970.23
2019-01-29T07:04:56.908Z,970.26
2019-01-29T07:05:56.372Z,970.26
2019-01-29T07:06:56.409Z,970.23
2019-01-29T07:07:56.360Z,970.25
2019-01-29T07:08:56.359Z,970.27
2019-01-29T07:09:56.370Z,970.32
2019-01-29T07:10:56.391Z,970.31
2019-01-29T07:11:56.311Z,970.27
2019-01-29T07:12:58.371Z,970.33
2019-01-29T07:13:56.292Z,970.31
2019-01-29T07:14:56.362Z,970.33
2019-01-29T07:15:56.286Z,970.39
2019-01-29T07:16:56.303Z,970.34
2019-01-29T07:17:56.238Z,970.37
2019-01-29T07:18:56.234Z,970.37
2019-01-29T07:19:58.255Z,970.40
2019-01-29T07:20:56.218Z,970.39
2019-01-29T07:21:56.235Z,970.35
2019-01-29T07:22:56.181Z,970.36
2019-01-29T07:23:56.168Z,970.41
2019-01-29T07:24:56.161Z,970.39
2019-01-29T07:25:56.252Z,970.45
2019-01-29T07:26:56.140Z,970.48
2019-01-29T07:27:56.241Z,970.45
2019-01-29T07:28:56.103Z,970.50
2019-01-29T07:29:56.103Z,970.46
2019-01-29T07:30:56.194Z,970.45
2019-01-29T07:31:56.078Z,970.50
2019-01-29T07:32:56.174Z,970.52
2019-01-29T07:33:56.066Z,970.55
2019-01-29T07:34:56.051Z,970.52
2019-01-29T07:35:56.049Z,970.55
2019-01-29T07:36:57.068Z,970.65
2019-01-29T07:37:56.007Z,970.59
2019-01-29T07:38:56.088Z,970.58
2019-01-29T07:39:56.051Z,970.54
2019-01-29T07:40:55.990Z,970.60
2019-01-29T07:41:55.990Z,970.57
2019-01-29T07:42:55.954Z,970.59
2019-01-29T07:43:56.022Z,970.62
2019-01-29T07:44:55.932Z,970.63
2019-01-29T07:45:56.006Z,970.63
2019-01-29T07:46:55.916Z,970.62
2019-01-29T07:47:55.994Z,970.60
2019-01-29T07:48:55.897Z,970.72
2019-01-29T07:49:55.945Z,970.65
2019-01-29T07:50:55.888Z,970.68
2019-01-29T07:51:55.977Z,970.66
2019-01-29T07:52:55.856Z,970.66
2019-01-29T07:53:55.907Z,970.67
2019-01-29T07:54:55.838Z,970.69
2019-01-29T07:55:55.831Z,970.67
2019-01-29T07:56:55.918Z,970.66
2019-01-29T07:57:55.790Z,970.66
2019-01-29T07:58:57.895Z,970.64
2019-01-29T07:59:55.772Z,970.62
2019-01-29T08:00:55.773Z,970.63
2019-01-29T08:01:55.849Z,970.60
2019-01-29T08:02:55.740Z,970.65
2019-01-29T08:03:55.791Z,970.64
2019-01-29T08:04:55.721Z,970.65
2019-01-29T08:05:55.721Z,970.60
2019-01-29T08:06:55.701Z,970.73
2019-01-29T08:07:55.762Z,970.69
2019-01-29T08:08:55.673Z,970.71
2019-01-29T08:09:55.693Z,970.68
2019-01-29T08:10:55.655Z,970.66
2019-01-29T08:11:55.735Z,970.65
2019-01-29T08:12:56.701Z,970.66
2019-01-29T08:13:55.664Z,970.69
2019-01-29T08:14:55.596Z,970.71
2019-01-29T08:15:55.646Z,970.77
2019-01-29T08:16:55.565Z,970.73
2019-01-29T08:17:56.666Z,970.78
2019-01-29T08:18:55.576Z,970.78
2019-01-29T08:19:55.566Z,970.77
2019-01-29T08:20:55.547Z,970.73
2019-01-29T08:21:55.517Z,970.74
2019-01-29T08:22:55.507Z,970.72
2019-01-29T08:23:55.538Z,970.67
2019-01-29T08:25:01.649Z,970.69
2019-01-29T08:25:58.588Z,970.74
2019-01-29T08:26:55.468Z,970.73
2019-01-29T08:27:55.512Z,970.71
2019-01-29T08:28:55.910Z,970.74
2019-01-29T08:29:55.460Z,970.72
2019-01-29T08:30:55.450Z,970.73
2019-01-29T08:31:55.491Z,970.74
2019-01-29T08:32:55.411Z,970.80
2019-01-29T08:33:55.431Z,970.77
2019-01-29T08:34:55.381Z,970.80
2019-01-29T08:35:55.412Z,970.83
2019-01-29T08:36:55.362Z,970.82
2019-01-29T08:37:55.353Z,970.78
2019-01-29T08:38:55.344Z,970.79
2019-01-29T08:39:55.434Z,970.78
2019-01-29T08:40:55.334Z,970.78
2019-01-29T08:41:57.316Z,970.80
2019-01-29T08:42:55.298Z,970.90
2019-01-29T08:43:55.286Z,970.86
2019-01-29T08:44:55.375Z,970.87
2019-01-29T08:45:55.266Z,970.83
2019-01-29T08:46:55.300Z,970.87
2019-01-29T08:47:55.237Z,970.90
2019-01-29T08:48:55.217Z,970.90
2019-01-29T08:49:55.198Z,970.90
2019-01-29T08:50:55.313Z,970.88
2019-01-29T08:51:55.189Z,970.91
2019-01-29T08:52:57.262Z,970.92
2019-01-29T08:53:55.169Z,970.95
2019-01-29T08:54:55.345Z,970.87
2019-01-29T08:55:55.155Z,970.92
2019-01-29T08:56:56.211Z,970.95
2019-01-29T08:57:55.121Z,970.97
2019-01-29T08:58:56.140Z,970.98
2019-01-29T08:59:55.102Z,970.97
2019-01-29T09:00:55.199Z,970.99
2019-01-29T09:01:55.074Z,970.95
2019-01-29T09:02:56.113Z,970.99
2019-01-29T09:03:55.053Z,971.03
2019-01-29T09:04:55.036Z,971.04
2019-01-29T09:05:55.043Z,971.02
2019-01-29T09:06:55.064Z,970.99
2019-01-29T09:07:55.015Z,971.00
2019-01-29T09:08:55.095Z,971.00
2019-01-29T09:09:54.985Z,971.00
2019-01-29T09:10:55.086Z,970.95
2019-01-29T09:11:54.957Z,970.98
2019-01-29T09:12:55.067Z,970.96
2019-01-29T09:13:54.949Z,970.94
2019-01-29T09:14:55.017Z,970.99
2019-01-29T09:15:54.958Z,970.98
2019-01-29T09:16:56.998Z,971.01
2019-01-29T09:17:54.908Z,971.01
2019-01-29T09:18:54.989Z,970.99
2019-01-29T09:19:54.890Z,970.98
2019-01-29T09:20:54.839Z,970.96
2019-01-29T09:21:54.933Z,970.98
2019-01-29T09:22:54.831Z,971.00
2019-01-29T09:23:54.922Z,970.98
2019-01-29T09:24:54.824Z,971.00
2019-01-29T09:25:54.818Z,970.99
2019-01-29T09:26:54.823Z,970.99
2019-01-29T09:27:54.885Z,971.03
2019-01-29T09:28:54.783Z,970.97
2019-01-29T09:29:55.857Z,971.00
2019-01-29T09:30:54.760Z,970.91
2019-01-29T09:31:54.765Z,970.97
2019-01-29T09:32:54.828Z,970.96
2019-01-29T09:33:54.725Z,970.86
2019-01-29T09:34:54.769Z,970.90
2019-01-29T09:35:54.705Z,970.91
2019-01-29T09:36:54.721Z,970.90
2019-01-29T09:37:54.773Z,970.99
2019-01-29T09:38:54.682Z,970.93
2019-01-29T09:39:54.732Z,970.95
2019-01-29T09:40:54.634Z,971.02
2019-01-29T09:41:54.684Z,970.99
2019-01-29T09:42:54.614Z,970.95
2019-01-29T09:43:54.678Z,970.98
2019-01-29T09:44:54.589Z,970.99
2019-01-29T09:45:54.620Z,971.00
2019-01-29T09:46:54.590Z,971.00
2019-01-29T09:47:54.560Z,970.99
2019-01-29T09:48:54.551Z,971.01
2019-01-29T09:49:54.592Z,971.00
2019-01-29T09:50:54.542Z,971.08
2019-01-29T09:51:54.572Z,971.04
2019-01-29T09:52:54.502Z,971.03
2019-01-29T09:53:54.491Z,971.03
2019-01-29T09:54:54.533Z,971.05
2019-01-29T09:55:54.479Z,971.08
2019-01-29T09:56:54.513Z,971.07
2019-01-29T09:57:54.426Z,971.06
2019-01-29T09:58:54.434Z,971.01
2019-01-29T09:59:54.475Z,971.07
2019-01-29T10:00:54.411Z,971.03
2019-01-29T10:01:54.456Z,971.05
2019-01-29T10:02:54.406Z,971.02
2019-01-29T10:03:54.446Z,970.99
2019-01-29T10:04:54.377Z,970.94
2019-01-29T10:05:54.388Z,970.86
2019-01-29T10:06:54.339Z,970.94
2019-01-29T10:07:55.440Z,970.91
2019-01-29T10:08:54.331Z,970.88
2019-01-29T10:09:54.323Z,970.86
2019-01-29T10:10:54.309Z,970.91
2019-01-29T10:11:55.360Z,970.85
2019-01-29T10:12:54.290Z,970.89
2019-01-29T10:13:56.372Z,970.91
2019-01-29T10:14:54.260Z,970.97
2019-01-29T10:15:54.248Z,970.90
2019-01-29T10:16:54.283Z,970.88
2019-01-29T10:17:54.232Z,970.88
2019-01-29T10:18:54.263Z,970.88
2019-01-29T10:20:02.324Z,970.86
2019-01-29T10:20:55.223Z,970.86
2019-01-29T10:21:54.206Z,970.82
2019-01-29T10:22:54.240Z,970.79
2019-01-29T10:23:54.155Z,970.81
2019-01-29T10:24:54.168Z,970.78
2019-01-29T10:25:54.140Z,970.78
2019-01-29T10:26:54.146Z,970.77
2019-01-29T10:27:54.177Z,970.77
2019-01-29T10:28:54.107Z,970.79
2019-01-29T10:29:54.110Z,970.81
2019-01-29T10:30:54.083Z,970.79
2019-01-29T10:31:54.088Z,970.75
2019-01-29T10:32:54.058Z,970.73
2019-01-29T10:33:54.093Z,970.74
2019-01-29T10:34:54.029Z,970.72
2019-01-29T10:35:54.122Z,970.73
2019-01-29T10:36:54.020Z,970.70
2019-01-29T10:37:53.990Z,970.70
2019-01-29T10:38:55.041Z,970.73
2019-01-29T10:39:53.982Z,970.69
2019-01-29T10:40:54.056Z,970.70
2019-01-29T10:41:53.975Z,970.64
2019-01-29T10:42:53.943Z,970.64
2019-01-29T10:43:53.953Z,970.65
2019-01-29T10:44:54.021Z,970.64
2019-01-29T10:45:53.914Z,970.63
2019-01-29T10:46:54.004Z,970.61
2019-01-29T10:47:53.885Z,970.58
2019-01-29T10:48:53.885Z,970.59
2019-01-29T10:49:54.875Z,970.64
2019-01-29T10:50:53.837Z,970.57
2019-01-29T10:51:53.970Z,970.57
2019-01-29T10:52:53.837Z,970.54
2019-01-29T10:53:53.829Z,970.55
2019-01-29T10:54:53.821Z,970.51
2019-01-29T10:55:53.879Z,970.52
2019-01-29T10:56:53.808Z,970.55
2019-01-29T10:57:53.820Z,970.50
2019-01-29T10:58:53.769Z,970.55
2019-01-29T10:59:53.760Z,970.55
2019-01-29T11:00:53.751Z,970.57
2019-01-29T11:01:53.827Z,970.59
2019-01-29T11:02:53.730Z,970.56
2019-01-29T11:03:53.816Z,970.58
2019-01-29T11:04:53.701Z,970.60
2019-01-29T11:05:53.763Z,970.53
2019-01-29T11:06:54.066Z,970.53
2019-01-29T11:07:53.683Z,970.51
2019-01-29T11:08:53.663Z,970.56
2019-01-29T11:09:54.785Z,970.45
2019-01-29T11:10:53.704Z,970.48
2019-01-29T11:11:53.635Z,970.41
2019-01-29T11:12:53.729Z,970.43
2019-01-29T11:13:53.606Z,970.42
2019-01-29T11:14:53.765Z,970.40
2019-01-29T11:15:53.739Z,970.42
2019-01-29T11:16:53.576Z,970.43
2019-01-29T11:17:53.667Z,970.34
2019-01-29T11:18:53.602Z,970.35
2019-01-29T11:19:53.708Z,970.40
2019-01-29T11:20:53.519Z,970.32
2019-01-29T11:21:53.538Z,970.38
2019-01-29T11:22:53.619Z,970.36
2019-01-29T11:23:53.480Z,970.36
2019-01-29T11:24:53.650Z,970.33
2019-01-29T11:25:56.090Z,970.28
2019-01-29T11:26:53.451Z,970.34
2019-01-29T11:27:53.451Z,970.34
2019-01-29T11:28:53.622Z,970.30
2019-01-29T11:29:53.411Z,970.31
2019-01-29T11:30:53.563Z,970.30
2019-01-29T11:31:53.403Z,970.33
2019-01-29T11:32:53.393Z,970.35
2019-01-29T11:33:53.564Z,970.34
2019-01-29T11:34:53.367Z,970.36
2019-01-29T11:35:53.504Z,970.35
2019-01-29T11:36:53.344Z,970.35
2019-01-29T11:37:53.345Z,970.31
2019-01-29T11:38:53.326Z,970.31
2019-01-29T11:39:53.475Z,970.35
2019-01-29T11:40:53.296Z,970.34
2019-01-29T11:41:53.406Z,970.32
2019-01-29T11:42:53.288Z,970.32
2019-01-29T11:43:53.268Z,970.29
2019-01-29T11:44:53.407Z,970.29
2019-01-29T11:45:53.238Z,970.26
2019-01-29T11:46:55.393Z,970.23
2019-01-29T11:47:53.233Z,970.24
2019-01-29T11:48:53.209Z,970.18
2019-01-29T11:49:53.200Z,970.24
2019-01-29T11:50:59.972Z,970.22
2019-01-29T11:51:53.173Z,970.17
2019-01-29T11:52:53.301Z,970.18
2019-01-29T11:53:53.152Z,970.15
2019-01-29T11:54:53.143Z,970.19
2019-01-29T11:55:53.253Z,970.14
2019-01-29T11:56:53.113Z,970.16
2019-01-29T11:57:53.243Z,970.15
2019-01-29T11:58:53.094Z,970.17
2019-01-29T11:59:53.065Z,970.16
2019-01-29T12:00:53.074Z,970.10
2019-01-29T12:01:53.164Z,970.18
2019-01-29T12:02:53.055Z,970.14
2019-01-29T12:03:53.195Z,970.16
2019-01-29T12:04:53.016Z,970.10
2019-01-29T12:05:53.007Z,970.10
2019-01-29T12:06:53.107Z,970.13
2019-01-29T12:07:52.997Z,970.17
2019-01-29T12:08:53.136Z,970.17
2019-01-29T12:09:52.959Z,970.09
2019-01-29T12:10:52.950Z,970.16
2019-01-29T12:11:52.950Z,970.15
2019-01-29T12:12:53.050Z,970.14
2019-01-29T12:13:52.919Z,970.19
2019-01-29T12:14:53.040Z,970.11
2019-01-29T12:15:52.892Z,970.13
2019-01-29T12:16:52.882Z,970.13
2019-01-29T12:17:54.021Z,970.15
2019-01-29T12:18:52.862Z,970.14
2019-01-29T12:19:54.012Z,970.15
2019-01-29T12:20:52.843Z,970.12
2019-01-29T12:21:53.842Z,970.10
2019-01-29T12:22:52.834Z,970.12
2019-01-29T12:23:52.966Z,970.08
2019-01-29T12:24:52.804Z,970.02
2019-01-29T12:25:52.895Z,970.01
2019-01-29T12:26:52.775Z,970.04
2019-01-29T12:27:52.793Z,970.05